sensor_id;sensor_type;location;lat;lon;timestamp;P1;durP1;ratioP1;P2;durP2;ratioP2
4724;SDS011;2376;53.544;10.226;2022-09-09T00:00:24;17.77;;;16.07;;
4724;SDS011;2376;53.544;10.226;2022-09-09T00:02:54;22.47;;;19.67;;
4724;SDS011;2376;53.544;10.226;2022-09-09T00:05:29;22.03;;;19.73;;
4724;SDS011;2376;53.544;10.226;2022-09-09T00:08:02;21.17;;;18.97;;
4724;SDS011;2376;53.544;10.226;2022-09-09T00:10:31;21.57;;;19.17;;
4724;SDS011;2376;53.544;10.226;2022-09-09T00:13:02;23.43;;;19.73;;
4724;SDS011;2376;53.544;10.226;2022-09-09T00:15:37;22.97;;;19.43;;
4724;SDS011;2376;53.544;10.226;2022-09-09T00:18:11;21.60;;;19.40;;
4724;SDS011;2376;53.544;10.226;2022-09-09T00:20:46;19.53;;;17.53;;
4724;SDS011;2376;53.544;10.226;2022-09-09T00:23:20;22.53;;;20.23;;
4724;SDS011;2376;53.544;10.226;2022-09-09T00:25:54;23.37;;;21.00;;
4724;SDS011;2376;53.544;10.226;2022-09-09T00:28:28;22.00;;;19.60;;
4724;SDS011;2376;53.544;10.226;2022-09-09T00:30:59;20.00;;;18.00;;
4724;SDS011;2376;53.544;10.226;2022-09-09T00:33:35;20.60;;;18.40;;
4724;SDS011;2376;53.544;10.226;2022-09-09T00:36:02;19.83;;;17.67;;
4724;SDS011;2376;53.544;10.226;2022-09-09T00:38:32;23.43;;;18.80;;
4724;SDS011;2376;53.544;10.226;2022-09-09T00:41:04;21.10;;;18.83;;
4724;SDS011;2376;53.544;10.226;2022-09-09T00:43:38;19.33;;;17.33;;
4724;SDS011;2376;53.544;10.226;2022-09-09T00:46:25;19.93;;;17.77;;
4724;SDS011;2376;53.544;10.226;2022-09-09T00:49:15;19.70;;;17.60;;
4724;SDS011;2376;53.544;10.226;2022-09-09T00:51:51;21.27;;;18.87;;
4724;SDS011;2376;53.544;10.226;2022-09-09T00:54:31;21.17;;;18.80;;
4724;SDS011;2376;53.544;10.226;2022-09-09T00:57:10;21.40;;;18.20;;
4724;SDS011;2376;53.544;10.226;2022-09-09T00:59:46;23.90;;;20.07;;
4724;SDS011;2376;53.544;10.226;2022-09-09T01:02:17;23.57;;;19.83;;
4724;SDS011;2376;53.544;10.226;2022-09-09T01:04:54;23.50;;;18.97;;
4724;SDS011;2376;53.544;10.226;2022-09-09T01:07:22;28.30;;;21.80;;
4724;SDS011;2376;53.544;10.226;2022-09-09T01:09:55;24.10;;;20.23;;
4724;SDS011;2376;53.544;10.226;2022-09-09T01:12:25;22.33;;;19.93;;
4724;SDS011;2376;53.544;10.226;2022-09-09T01:15:00;26.50;;;22.47;;
4724;SDS011;2376;53.544;10.226;2022-09-09T01:17:34;27.23;;;22.77;;
4724;SDS011;2376;53.544;10.226;2022-09-09T01:20:17;26.00;;;21.67;;
4724;SDS011;2376;53.544;10.226;2022-09-09T01:22:50;29.60;;;22.77;;
4724;SDS011;2376;53.544;10.226;2022-09-09T01:28:32;25.50;;;21.10;;
4724;SDS011;2376;53.544;10.226;2022-09-09T01:31:01;25.37;;;21.30;;
4724;SDS011;2376;53.544;10.226;2022-09-09T01:33:29;26.60;;;21.50;;
4724;SDS011;2376;53.544;10.226;2022-09-09T01:35:57;23.93;;;19.83;;
4724;SDS011;2376;53.544;10.226;2022-09-09T01:38:30;24.90;;;20.90;;
4724;SDS011;2376;53.544;10.226;2022-09-09T01:40:58;21.87;;;19.07;;
4724;SDS011;2376;53.544;10.226;2022-09-09T01:43:25;23.87;;;20.17;;
4724;SDS011;2376;53.544;10.226;2022-09-09T01:45:55;26.07;;;20.20;;
4724;SDS011;2376;53.544;10.226;2022-09-09T01:48:25;22.23;;;18.93;;
4724;SDS011;2376;53.544;10.226;2022-09-09T01:50:52;25.77;;;20.23;;
4724;SDS011;2376;53.544;10.226;2022-09-09T01:53:19;23.67;;;20.40;;
4724;SDS011;2376;53.544;10.226;2022-09-09T01:55:48;22.57;;;19.50;;
4724;SDS011;2376;53.544;10.226;2022-09-09T01:58:28;22.83;;;17.10;;
4724;SDS011;2376;53.544;10.226;2022-09-09T02:01:02;21.53;;;19.23;;
4724;SDS011;2376;53.544;10.226;2022-09-09T02:03:35;20.70;;;18.30;;
4724;SDS011;2376;53.544;10.226;2022-09-09T02:06:05;20.60;;;18.50;;
4724;SDS011;2376;53.544;10.226;2022-09-09T02:08:42;22.70;;;20.20;;
4724;SDS011;2376;53.544;10.226;2022-09-09T02:11:13;22.10;;;19.50;;
4724;SDS011;2376;53.544;10.226;2022-09-09T02:13:41;22.83;;;18.90;;
4724;SDS011;2376;53.544;10.226;2022-09-09T02:16:13;24.47;;;21.50;;
4724;SDS011;2376;53.544;10.226;2022-09-09T02:18:46;21.87;;;18.43;;
4724;SDS011;2376;53.544;10.226;2022-09-09T02:21:15;23.63;;;21.13;;
4724;SDS011;2376;53.544;10.226;2022-09-09T02:23:43;20.93;;;17.97;;
4724;SDS011;2376;53.544;10.226;2022-09-09T02:26:14;20.90;;;18.63;;
4724;SDS011;2376;53.544;10.226;2022-09-09T02:28:45;20.57;;;18.37;;
4724;SDS011;2376;53.544;10.226;2022-09-09T02:31:15;19.90;;;17.73;;
4724;SDS011;2376;53.544;10.226;2022-09-09T02:33:45;20.03;;;17.93;;
4724;SDS011;2376;53.544;10.226;2022-09-09T02:36:18;15.93;;;14.30;;
4724;SDS011;2376;53.544;10.226;2022-09-09T02:38:46;21.20;;;18.00;;
4724;SDS011;2376;53.544;10.226;2022-09-09T02:41:18;20.90;;;18.47;;
4724;SDS011;2376;53.544;10.226;2022-09-09T02:43:47;21.57;;;19.20;;
4724;SDS011;2376;53.544;10.226;2022-09-09T02:46:21;21.40;;;19.10;;
4724;SDS011;2376;53.544;10.226;2022-09-09T02:48:59;20.53;;;18.50;;
4724;SDS011;2376;53.544;10.226;2022-09-09T02:51:30;17.43;;;15.67;;
4724;SDS011;2376;53.544;10.226;2022-09-09T02:54:04;18.93;;;16.93;;
4724;SDS011;2376;53.544;10.226;2022-09-09T02:56:39;19.00;;;16.57;;
4724;SDS011;2376;53.544;10.226;2022-09-09T02:59:09;17.70;;;15.83;;
4724;SDS011;2376;53.544;10.226;2022-09-09T03:01:38;18.63;;;16.77;;
4724;SDS011;2376;53.544;10.226;2022-09-09T03:04:05;15.87;;;14.17;;
4724;SDS011;2376;53.544;10.226;2022-09-09T03:06:32;20.80;;;18.60;;
4724;SDS011;2376;53.544;10.226;2022-09-09T03:08:58;19.40;;;17.50;;
4724;SDS011;2376;53.544;10.226;2022-09-09T03:11:27;17.33;;;15.53;;
4724;SDS011;2376;53.544;10.226;2022-09-09T03:13:54;21.47;;;18.83;;
4724;SDS011;2376;53.544;10.226;2022-09-09T03:16:22;20.17;;;18.07;;
4724;SDS011;2376;53.544;10.226;2022-09-09T03:18:50;21.10;;;18.10;;
4724;SDS011;2376;53.544;10.226;2022-09-09T03:21:17;21.77;;;19.47;;
4724;SDS011;2376;53.544;10.226;2022-09-09T03:23:44;19.47;;;17.50;;
4724;SDS011;2376;53.544;10.226;2022-09-09T03:26:11;21.43;;;19.23;;
4724;SDS011;2376;53.544;10.226;2022-09-09T03:28:40;21.90;;;19.53;;
4724;SDS011;2376;53.544;10.226;2022-09-09T03:31:07;22.33;;;19.63;;
4724;SDS011;2376;53.544;10.226;2022-09-09T03:33:35;29.60;;;20.03;;
4724;SDS011;2376;53.544;10.226;2022-09-09T03:36:03;21.87;;;19.57;;
4724;SDS011;2376;53.544;10.226;2022-09-09T03:38:30;21.10;;;18.83;;
4724;SDS011;2376;53.544;10.226;2022-09-09T03:40:57;22.30;;;19.90;;
4724;SDS011;2376;53.544;10.226;2022-09-09T03:43:25;22.10;;;19.80;;
4724;SDS011;2376;53.544;10.226;2022-09-09T03:45:52;20.97;;;18.43;;
4724;SDS011;2376;53.544;10.226;2022-09-09T03:48:21;21.03;;;18.77;;
4724;SDS011;2376;53.544;10.226;2022-09-09T03:50:49;21.83;;;18.47;;
4724;SDS011;2376;53.544;10.226;2022-09-09T03:53:19;19.70;;;17.60;;
4724;SDS011;2376;53.544;10.226;2022-09-09T03:55:48;20.10;;;17.90;;
4724;SDS011;2376;53.544;10.226;2022-09-09T03:58:17;21.23;;;18.93;;
4724;SDS011;2376;53.544;10.226;2022-09-09T04:00:52;22.80;;;18.27;;
4724;SDS011;2376;53.544;10.226;2022-09-09T04:03:19;21.83;;;19.53;;
4724;SDS011;2376;53.544;10.226;2022-09-09T04:05:48;21.00;;;18.70;;
4724;SDS011;2376;53.544;10.226;2022-09-09T04:08:14;21.27;;;19.20;;
4724;SDS011;2376;53.544;10.226;2022-09-09T04:10:43;19.80;;;17.50;;
4724;SDS011;2376;53.544;10.226;2022-09-09T04:13:10;20.13;;;18.03;;
4724;SDS011;2376;53.544;10.226;2022-09-09T04:15:39;19.60;;;17.17;;
4724;SDS011;2376;53.544;10.226;2022-09-09T04:18:05;22.00;;;18.87;;
4724;SDS011;2376;53.544;10.226;2022-09-09T04:20:32;19.50;;;17.60;;
4724;SDS011;2376;53.544;10.226;2022-09-09T04:22:59;19.63;;;16.70;;
4724;SDS011;2376;53.544;10.226;2022-09-09T04:25:25;18.67;;;16.77;;
4724;SDS011;2376;53.544;10.226;2022-09-09T04:27:54;18.13;;;16.40;;
4724;SDS011;2376;53.544;10.226;2022-09-09T04:30:21;18.50;;;16.50;;
4724;SDS011;2376;53.544;10.226;2022-09-09T04:32:48;19.13;;;17.00;;
4724;SDS011;2376;53.544;10.226;2022-09-09T04:35:15;18.17;;;16.33;;
4724;SDS011;2376;53.544;10.226;2022-09-09T04:37:41;18.73;;;16.80;;
4724;SDS011;2376;53.544;10.226;2022-09-09T04:40:09;18.87;;;16.87;;
4724;SDS011;2376;53.544;10.226;2022-09-09T04:42:36;20.53;;;16.47;;
4724;SDS011;2376;53.544;10.226;2022-09-09T04:45:05;17.47;;;15.67;;
4724;SDS011;2376;53.544;10.226;2022-09-09T04:47:36;19.20;;;17.23;;
4724;SDS011;2376;53.544;10.226;2022-09-09T04:50:03;18.77;;;16.87;;
4724;SDS011;2376;53.544;10.226;2022-09-09T04:52:30;17.70;;;15.97;;
4724;SDS011;2376;53.544;10.226;2022-09-09T04:54:57;18.50;;;16.77;;
4724;SDS011;2376;53.544;10.226;2022-09-09T04:57:24;18.40;;;16.47;;
4724;SDS011;2376;53.544;10.226;2022-09-09T04:59:50;15.87;;;14.37;;
4724;SDS011;2376;53.544;10.226;2022-09-09T05:02:18;16.87;;;15.03;;
4724;SDS011;2376;53.544;10.226;2022-09-09T05:04:45;15.60;;;14.00;;
4724;SDS011;2376;53.544;10.226;2022-09-09T05:07:12;15.40;;;13.90;;
4724;SDS011;2376;53.544;10.226;2022-09-09T05:09:39;15.47;;;14.07;;
4724;SDS011;2376;53.544;10.226;2022-09-09T05:12:06;13.97;;;12.57;;
4724;SDS011;2376;53.544;10.226;2022-09-09T05:14:33;13.80;;;12.40;;
4724;SDS011;2376;53.544;10.226;2022-09-09T05:17:01;14.90;;;13.60;;
4724;SDS011;2376;53.544;10.226;2022-09-09T05:19:29;13.93;;;12.40;;
4724;SDS011;2376;53.544;10.226;2022-09-09T05:21:56;15.00;;;13.27;;
4724;SDS011;2376;53.544;10.226;2022-09-09T05:24:22;14.43;;;13.03;;
4724;SDS011;2376;53.544;10.226;2022-09-09T05:26:49;14.43;;;12.90;;
4724;SDS011;2376;53.544;10.226;2022-09-09T05:29:16;16.33;;;13.90;;
4724;SDS011;2376;53.544;10.226;2022-09-09T05:31:44;13.53;;;12.33;;
4724;SDS011;2376;53.544;10.226;2022-09-09T05:34:12;12.00;;;11.00;;
4724;SDS011;2376;53.544;10.226;2022-09-09T05:36:40;13.30;;;11.33;;
4724;SDS011;2376;53.544;10.226;2022-09-09T05:39:06;11.83;;;10.73;;
4724;SDS011;2376;53.544;10.226;2022-09-09T05:41:33;12.07;;;11.00;;
4724;SDS011;2376;53.544;10.226;2022-09-09T05:44:01;10.33;;;9.07;;
4724;SDS011;2376;53.544;10.226;2022-09-09T05:46:28;12.33;;;11.17;;
4724;SDS011;2376;53.544;10.226;2022-09-09T05:48:55;11.93;;;10.80;;
4724;SDS011;2376;53.544;10.226;2022-09-09T05:51:24;11.60;;;10.60;;
4724;SDS011;2376;53.544;10.226;2022-09-09T05:53:54;11.60;;;10.53;;
4724;SDS011;2376;53.544;10.226;2022-09-09T05:56:24;10.80;;;9.90;;
4724;SDS011;2376;53.544;10.226;2022-09-09T05:58:52;9.80;;;8.97;;
4724;SDS011;2376;53.544;10.226;2022-09-09T06:01:20;8.73;;;7.93;;
4724;SDS011;2376;53.544;10.226;2022-09-09T06:03:49;9.03;;;8.33;;
4724;SDS011;2376;53.544;10.226;2022-09-09T06:06:17;7.60;;;7.00;;
4724;SDS011;2376;53.544;10.226;2022-09-09T06:08:47;9.33;;;8.43;;
4724;SDS011;2376;53.544;10.226;2022-09-09T06:11:18;7.73;;;7.13;;
4724;SDS011;2376;53.544;10.226;2022-09-09T06:13:46;8.37;;;7.57;;
4724;SDS011;2376;53.544;10.226;2022-09-09T06:16:16;9.63;;;8.73;;
4724;SDS011;2376;53.544;10.226;2022-09-09T06:18:43;8.40;;;7.60;;
4724;SDS011;2376;53.544;10.226;2022-09-09T06:21:15;6.47;;;5.87;;
4724;SDS011;2376;53.544;10.226;2022-09-09T06:23:43;8.43;;;6.80;;
4724;SDS011;2376;53.544;10.226;2022-09-09T06:26:11;7.43;;;6.80;;
4724;SDS011;2376;53.544;10.226;2022-09-09T06:28:40;7.20;;;6.70;;
4724;SDS011;2376;53.544;10.226;2022-09-09T06:31:08;8.83;;;7.93;;
4724;SDS011;2376;53.544;10.226;2022-09-09T06:33:37;6.90;;;6.40;;
4724;SDS011;2376;53.544;10.226;2022-09-09T06:36:06;8.47;;;7.70;;
4724;SDS011;2376;53.544;10.226;2022-09-09T06:38:36;6.87;;;6.37;;
4724;SDS011;2376;53.544;10.226;2022-09-09T06:41:03;8.60;;;7.80;;
4724;SDS011;2376;53.544;10.226;2022-09-09T06:43:30;7.30;;;6.60;;
4724;SDS011;2376;53.544;10.226;2022-09-09T06:45:59;7.93;;;7.40;;
4724;SDS011;2376;53.544;10.226;2022-09-09T06:48:27;8.37;;;6.30;;
4724;SDS011;2376;53.544;10.226;2022-09-09T06:51:03;6.77;;;6.17;;
4724;SDS011;2376;53.544;10.226;2022-09-09T06:53:30;6.10;;;5.70;;
4724;SDS011;2376;53.544;10.226;2022-09-09T06:55:59;7.30;;;6.70;;
4724;SDS011;2376;53.544;10.226;2022-09-09T06:58:26;7.67;;;7.07;;
4724;SDS011;2376;53.544;10.226;2022-09-09T07:00:53;7.43;;;6.90;;
4724;SDS011;2376;53.544;10.226;2022-09-09T07:03:28;7.37;;;6.43;;
4724;SDS011;2376;53.544;10.226;2022-09-09T07:05:55;6.77;;;6.17;;
4724;SDS011;2376;53.544;10.226;2022-09-09T07:08:21;6.90;;;6.40;;
4724;SDS011;2376;53.544;10.226;2022-09-09T07:10:49;6.30;;;5.80;;
4724;SDS011;2376;53.544;10.226;2022-09-09T07:13:18;7.53;;;6.93;;
4724;SDS011;2376;53.544;10.226;2022-09-09T07:15:49;6.43;;;5.83;;
4724;SDS011;2376;53.544;10.226;2022-09-09T07:18:17;5.57;;;5.13;;
4724;SDS011;2376;53.544;10.226;2022-09-09T07:20:52;6.27;;;5.77;;
4724;SDS011;2376;53.544;10.226;2022-09-09T07:23:18;6.13;;;5.67;;
4724;SDS011;2376;53.544;10.226;2022-09-09T07:25:45;5.97;;;5.43;;
4724;SDS011;2376;53.544;10.226;2022-09-09T07:28:12;6.27;;;5.67;;
4724;SDS011;2376;53.544;10.226;2022-09-09T07:30:39;8.07;;;6.57;;
4724;SDS011;2376;53.544;10.226;2022-09-09T07:33:06;5.57;;;5.20;;
4724;SDS011;2376;53.544;10.226;2022-09-09T07:35:35;5.97;;;5.30;;
4724;SDS011;2376;53.544;10.226;2022-09-09T07:38:02;5.40;;;4.87;;
4724;SDS011;2376;53.544;10.226;2022-09-09T07:40:31;4.50;;;4.10;;
4724;SDS011;2376;53.544;10.226;2022-09-09T07:42:58;4.80;;;4.30;;
4724;SDS011;2376;53.544;10.226;2022-09-09T07:45:25;5.70;;;4.77;;
4724;SDS011;2376;53.544;10.226;2022-09-09T07:47:53;5.67;;;5.30;;
4724;SDS011;2376;53.544;10.226;2022-09-09T07:50:21;4.77;;;4.37;;
4724;SDS011;2376;53.544;10.226;2022-09-09T07:52:50;7.80;;;5.43;;
4724;SDS011;2376;53.544;10.226;2022-09-09T07:55:16;7.93;;;4.90;;
4724;SDS011;2376;53.544;10.226;2022-09-09T07:57:44;4.13;;;3.83;;
4724;SDS011;2376;53.544;10.226;2022-09-09T08:00:12;5.53;;;4.40;;
4724;SDS011;2376;53.544;10.226;2022-09-09T08:02:40;4.63;;;4.23;;
4724;SDS011;2376;53.544;10.226;2022-09-09T08:05:07;4.83;;;4.43;;
4724;SDS011;2376;53.544;10.226;2022-09-09T08:07:34;5.70;;;5.20;;
4724;SDS011;2376;53.544;10.226;2022-09-09T08:10:02;4.43;;;4.13;;
4724;SDS011;2376;53.544;10.226;2022-09-09T08:12:29;4.43;;;4.23;;
4724;SDS011;2376;53.544;10.226;2022-09-09T08:14:55;4.40;;;4.10;;
4724;SDS011;2376;53.544;10.226;2022-09-09T08:17:22;4.60;;;4.20;;
4724;SDS011;2376;53.544;10.226;2022-09-09T08:19:49;4.73;;;4.20;;
4724;SDS011;2376;53.544;10.226;2022-09-09T08:22:15;3.97;;;3.70;;
4724;SDS011;2376;53.544;10.226;2022-09-09T08:24:42;5.87;;;4.37;;
4724;SDS011;2376;53.544;10.226;2022-09-09T08:27:10;4.57;;;4.17;;
4724;SDS011;2376;53.544;10.226;2022-09-09T08:29:37;4.53;;;4.10;;
4724;SDS011;2376;53.544;10.226;2022-09-09T08:32:04;3.87;;;3.27;;
4724;SDS011;2376;53.544;10.226;2022-09-09T08:34:31;4.03;;;3.73;;
4724;SDS011;2376;53.544;10.226;2022-09-09T08:36:57;3.77;;;3.43;;
4724;SDS011;2376;53.544;10.226;2022-09-09T08:39:24;3.87;;;3.60;;
4724;SDS011;2376;53.544;10.226;2022-09-09T08:47:42;3.67;;;3.10;;
4724;SDS011;2376;53.544;10.226;2022-09-09T08:50:19;3.77;;;3.47;;
4724;SDS011;2376;53.544;10.226;2022-09-09T08:52:51;5.07;;;4.57;;
4724;SDS011;2376;53.544;10.226;2022-09-09T08:55:24;3.90;;;3.60;;
4724;SDS011;2376;53.544;10.226;2022-09-09T08:57:57;6.10;;;3.23;;
4724;SDS011;2376;53.544;10.226;2022-09-09T09:00:28;4.70;;;4.30;;
4724;SDS011;2376;53.544;10.226;2022-09-09T09:03:01;5.10;;;3.53;;
4724;SDS011;2376;53.544;10.226;2022-09-09T09:05:40;3.30;;;3.00;;
4724;SDS011;2376;53.544;10.226;2022-09-09T09:08:14;4.07;;;3.77;;
4724;SDS011;2376;53.544;10.226;2022-09-09T09:10:46;3.70;;;2.57;;
4724;SDS011;2376;53.544;10.226;2022-09-09T09:13:17;3.80;;;3.50;;
4724;SDS011;2376;53.544;10.226;2022-09-09T09:15:47;3.80;;;3.50;;
4724;SDS011;2376;53.544;10.226;2022-09-09T09:18:18;3.23;;;3.00;;
4724;SDS011;2376;53.544;10.226;2022-09-09T09:20:48;3.30;;;2.90;;
4724;SDS011;2376;53.544;10.226;2022-09-09T09:23:21;2.47;;;2.30;;
4724;SDS011;2376;53.544;10.226;2022-09-09T09:25:49;6.30;;;2.37;;
4724;SDS011;2376;53.544;10.226;2022-09-09T09:28:22;1.93;;;1.80;;
4724;SDS011;2376;53.544;10.226;2022-09-09T09:30:51;2.67;;;2.47;;
4724;SDS011;2376;53.544;10.226;2022-09-09T09:33:24;2.77;;;2.50;;
4724;SDS011;2376;53.544;10.226;2022-09-09T09:35:54;3.17;;;2.70;;
4724;SDS011;2376;53.544;10.226;2022-09-09T09:38:22;2.33;;;2.20;;
4724;SDS011;2376;53.544;10.226;2022-09-09T09:40:51;2.30;;;2.10;;
4724;SDS011;2376;53.544;10.226;2022-09-09T09:43:25;2.23;;;1.50;;
4724;SDS011;2376;53.544;10.226;2022-09-09T09:45:53;2.30;;;2.10;;
4724;SDS011;2376;53.544;10.226;2022-09-09T09:48:22;2.77;;;2.03;;
4724;SDS011;2376;53.544;10.226;2022-09-09T09:50:50;4.17;;;2.03;;
4724;SDS011;2376;53.544;10.226;2022-09-09T09:53:20;2.07;;;1.97;;
4724;SDS011;2376;53.544;10.226;2022-09-09T09:55:52;2.10;;;2.00;;
4724;SDS011;2376;53.544;10.226;2022-09-09T09:58:21;2.10;;;2.00;;
4724;SDS011;2376;53.544;10.226;2022-09-09T10:00:51;1.80;;;1.70;;
4724;SDS011;2376;53.544;10.226;2022-09-09T10:03:20;2.07;;;1.70;;
4724;SDS011;2376;53.544;10.226;2022-09-09T10:05:50;2.00;;;1.90;;
4724;SDS011;2376;53.544;10.226;2022-09-09T10:08:17;2.17;;;1.90;;
4724;SDS011;2376;53.544;10.226;2022-09-09T10:10:50;3.00;;;2.00;;
4724;SDS011;2376;53.544;10.226;2022-09-09T10:13:48;2.77;;;1.73;;
4724;SDS011;2376;53.544;10.226;2022-09-09T10:16:30;2.27;;;2.07;;
4724;SDS011;2376;53.544;10.226;2022-09-09T10:19:09;2.33;;;2.17;;
4724;SDS011;2376;53.544;10.226;2022-09-09T10:21:55;2.20;;;2.03;;
4724;SDS011;2376;53.544;10.226;2022-09-09T10:24:47;2.03;;;1.93;;
4724;SDS011;2376;53.544;10.226;2022-09-09T10:27:27;2.80;;;2.03;;
4724;SDS011;2376;53.544;10.226;2022-09-09T10:30:10;2.90;;;2.70;;
4724;SDS011;2376;53.544;10.226;2022-09-09T10:32:46;7.00;;;2.33;;
4724;SDS011;2376;53.544;10.226;2022-09-09T10:35:24;3.27;;;2.00;;
4724;SDS011;2376;53.544;10.226;2022-09-09T10:40:46;2.53;;;2.23;;
4724;SDS011;2376;53.544;10.226;2022-09-09T10:43:48;2.53;;;2.30;;
4724;SDS011;2376;53.544;10.226;2022-09-09T10:46:37;6.20;;;1.90;;
4724;SDS011;2376;53.544;10.226;2022-09-09T10:49:18;4.60;;;2.03;;
4724;SDS011;2376;53.544;10.226;2022-09-09T10:51:54;2.03;;;1.63;;
4724;SDS011;2376;53.544;10.226;2022-09-09T10:54:30;1.80;;;1.70;;
4724;SDS011;2376;53.544;10.226;2022-09-09T10:57:07;2.10;;;1.87;;
4724;SDS011;2376;53.544;10.226;2022-09-09T10:59:39;2.33;;;2.10;;
4724;SDS011;2376;53.544;10.226;2022-09-09T11:02:12;2.13;;;1.77;;
4724;SDS011;2376;53.544;10.226;2022-09-09T11:04:47;4.53;;;2.40;;
4724;SDS011;2376;53.544;10.226;2022-09-09T11:07:21;2.00;;;1.73;;
4724;SDS011;2376;53.544;10.226;2022-09-09T11:09:54;2.60;;;1.90;;
4724;SDS011;2376;53.544;10.226;2022-09-09T11:12:25;5.43;;;1.63;;
4724;SDS011;2376;53.544;10.226;2022-09-09T11:14:57;2.10;;;1.90;;
4724;SDS011;2376;53.544;10.226;2022-09-09T11:17:31;2.00;;;1.80;;
4724;SDS011;2376;53.544;10.226;2022-09-09T11:20:06;2.50;;;1.60;;
4724;SDS011;2376;53.544;10.226;2022-09-09T11:22:39;3.63;;;2.13;;
4724;SDS011;2376;53.544;10.226;2022-09-09T11:25:10;1.43;;;1.33;;
4724;SDS011;2376;53.544;10.226;2022-09-09T11:27:44;1.87;;;1.77;;
4724;SDS011;2376;53.544;10.226;2022-09-09T11:30:21;1.93;;;1.80;;
4724;SDS011;2376;53.544;10.226;2022-09-09T11:33:08;4.37;;;1.60;;
4724;SDS011;2376;53.544;10.226;2022-09-09T11:35:58;2.93;;;1.77;;
4724;SDS011;2376;53.544;10.226;2022-09-09T11:38:36;1.87;;;1.50;;
4724;SDS011;2376;53.544;10.226;2022-09-09T11:41:10;2.30;;;2.00;;
4724;SDS011;2376;53.544;10.226;2022-09-09T11:43:39;1.77;;;1.60;;
4724;SDS011;2376;53.544;10.226;2022-09-09T11:46:07;4.10;;;1.80;;
4724;SDS011;2376;53.544;10.226;2022-09-09T11:48:36;3.30;;;2.10;;
4724;SDS011;2376;53.544;10.226;2022-09-09T11:51:07;1.67;;;1.57;;
4724;SDS011;2376;53.544;10.226;2022-09-09T11:53:46;3.00;;;1.77;;
4724;SDS011;2376;53.544;10.226;2022-09-09T11:56:22;4.60;;;1.87;;
4724;SDS011;2376;53.544;10.226;2022-09-09T11:58:55;2.20;;;2.00;;
4724;SDS011;2376;53.544;10.226;2022-09-09T12:01:29;3.30;;;2.03;;
4724;SDS011;2376;53.544;10.226;2022-09-09T12:04:10;3.20;;;2.03;;
4724;SDS011;2376;53.544;10.226;2022-09-09T12:06:45;6.30;;;2.00;;
4724;SDS011;2376;53.544;10.226;2022-09-09T12:09:18;2.40;;;2.00;;
4724;SDS011;2376;53.544;10.226;2022-09-09T12:11:51;2.43;;;1.80;;
4724;SDS011;2376;53.544;10.226;2022-09-09T12:14:21;1.73;;;1.57;;
4724;SDS011;2376;53.544;10.226;2022-09-09T12:17:08;4.17;;;2.23;;
4724;SDS011;2376;53.544;10.226;2022-09-09T12:19:36;3.73;;;2.10;;
4724;SDS011;2376;53.544;10.226;2022-09-09T12:22:05;3.77;;;2.93;;
4724;SDS011;2376;53.544;10.226;2022-09-09T12:24:40;6.30;;;3.37;;
4724;SDS011;2376;53.544;10.226;2022-09-09T12:27:15;8.87;;;3.20;;
4724;SDS011;2376;53.544;10.226;2022-09-09T12:29:47;5.33;;;3.80;;
4724;SDS011;2376;53.544;10.226;2022-09-09T12:32:22;3.57;;;2.90;;
4724;SDS011;2376;53.544;10.226;2022-09-09T12:34:52;4.27;;;3.97;;
4724;SDS011;2376;53.544;10.226;2022-09-09T12:37:26;5.17;;;3.50;;
4724;SDS011;2376;53.544;10.226;2022-09-09T12:39:56;4.47;;;4.17;;
4724;SDS011;2376;53.544;10.226;2022-09-09T12:42:25;4.60;;;3.93;;
4724;SDS011;2376;53.544;10.226;2022-09-09T12:44:56;3.63;;;3.30;;
4724;SDS011;2376;53.544;10.226;2022-09-09T12:47:26;4.60;;;2.87;;
4724;SDS011;2376;53.544;10.226;2022-09-09T12:49:59;3.83;;;3.53;;
4724;SDS011;2376;53.544;10.226;2022-09-09T12:52:28;3.30;;;3.10;;
4724;SDS011;2376;53.544;10.226;2022-09-09T12:54:59;4.93;;;3.90;;
4724;SDS011;2376;53.544;10.226;2022-09-09T12:57:29;4.10;;;3.70;;
4724;SDS011;2376;53.544;10.226;2022-09-09T13:00:04;5.83;;;3.30;;
4724;SDS011;2376;53.544;10.226;2022-09-09T13:02:35;5.93;;;2.90;;
4724;SDS011;2376;53.544;10.226;2022-09-09T13:05:13;5.40;;;3.67;;
4724;SDS011;2376;53.544;10.226;2022-09-09T13:07:43;5.43;;;3.10;;
4724;SDS011;2376;53.544;10.226;2022-09-09T13:10:11;2.80;;;2.70;;
4724;SDS011;2376;53.544;10.226;2022-09-09T13:12:38;3.67;;;2.80;;
4724;SDS011;2376;53.544;10.226;2022-09-09T13:15:09;3.63;;;3.20;;
4724;SDS011;2376;53.544;10.226;2022-09-09T13:17:40;2.57;;;2.37;;
4724;SDS011;2376;53.544;10.226;2022-09-09T13:20:14;4.33;;;3.43;;
4724;SDS011;2376;53.544;10.226;2022-09-09T13:22:44;3.00;;;2.90;;
4724;SDS011;2376;53.544;10.226;2022-09-09T13:25:18;2.50;;;2.30;;
4724;SDS011;2376;53.544;10.226;2022-09-09T13:27:53;2.90;;;2.30;;
4724;SDS011;2376;53.544;10.226;2022-09-09T13:30:23;2.90;;;2.30;;
4724;SDS011;2376;53.544;10.226;2022-09-09T13:33:01;1.80;;;1.70;;
4724;SDS011;2376;53.544;10.226;2022-09-09T13:35:29;2.90;;;2.07;;
4724;SDS011;2376;53.544;10.226;2022-09-09T13:37:58;2.40;;;2.30;;
4724;SDS011;2376;53.544;10.226;2022-09-09T13:40:32;2.50;;;2.13;;
4724;SDS011;2376;53.544;10.226;2022-09-09T13:42:59;4.23;;;2.33;;
4724;SDS011;2376;53.544;10.226;2022-09-09T13:45:27;2.13;;;1.40;;
4724;SDS011;2376;53.544;10.226;2022-09-09T13:47:54;2.87;;;2.50;;
4724;SDS011;2376;53.544;10.226;2022-09-09T13:50:22;5.00;;;4.60;;
4724;SDS011;2376;53.544;10.226;2022-09-09T13:52:51;3.80;;;3.53;;
4724;SDS011;2376;53.544;10.226;2022-09-09T13:55:20;3.33;;;3.03;;
4724;SDS011;2376;53.544;10.226;2022-09-09T13:57:52;3.17;;;2.87;;
4724;SDS011;2376;53.544;10.226;2022-09-09T14:00:19;3.47;;;2.13;;
4724;SDS011;2376;53.544;10.226;2022-09-09T14:02:46;1.90;;;1.80;;
4724;SDS011;2376;53.544;10.226;2022-09-09T14:05:13;2.80;;;2.37;;
4724;SDS011;2376;53.544;10.226;2022-09-09T14:07:41;2.80;;;1.90;;
4724;SDS011;2376;53.544;10.226;2022-09-09T14:10:08;3.70;;;2.67;;
4724;SDS011;2376;53.544;10.226;2022-09-09T14:12:36;2.30;;;2.03;;
4724;SDS011;2376;53.544;10.226;2022-09-09T14:15:04;2.77;;;2.20;;
4724;SDS011;2376;53.544;10.226;2022-09-09T14:17:32;3.80;;;2.53;;
4724;SDS011;2376;53.544;10.226;2022-09-09T14:20:00;2.47;;;2.27;;
4724;SDS011;2376;53.544;10.226;2022-09-09T14:22:27;2.60;;;2.40;;
4724;SDS011;2376;53.544;10.226;2022-09-09T14:24:54;2.07;;;1.97;;
4724;SDS011;2376;53.544;10.226;2022-09-09T14:27:22;3.30;;;2.60;;
4724;SDS011;2376;53.544;10.226;2022-09-09T14:29:52;2.47;;;2.27;;
4724;SDS011;2376;53.544;10.226;2022-09-09T14:32:19;3.10;;;2.03;;
4724;SDS011;2376;53.544;10.226;2022-09-09T14:34:46;2.43;;;2.03;;
4724;SDS011;2376;53.544;10.226;2022-09-09T14:37:14;6.07;;;3.43;;
4724;SDS011;2376;53.544;10.226;2022-09-09T14:39:41;4.00;;;2.70;;
4724;SDS011;2376;53.544;10.226;2022-09-09T14:42:09;3.70;;;2.47;;
4724;SDS011;2376;53.544;10.226;2022-09-09T14:44:36;2.60;;;2.40;;
4724;SDS011;2376;53.544;10.226;2022-09-09T14:47:04;2.17;;;2.03;;
4724;SDS011;2376;53.544;10.226;2022-09-09T14:49:33;2.97;;;2.57;;
4724;SDS011;2376;53.544;10.226;2022-09-09T14:51:59;2.20;;;2.00;;
4724;SDS011;2376;53.544;10.226;2022-09-09T14:54:26;2.57;;;2.30;;
4724;SDS011;2376;53.544;10.226;2022-09-09T14:56:53;2.03;;;1.93;;
4724;SDS011;2376;53.544;10.226;2022-09-09T14:59:20;2.97;;;2.20;;
4724;SDS011;2376;53.544;10.226;2022-09-09T15:01:47;2.37;;;2.23;;
4724;SDS011;2376;53.544;10.226;2022-09-09T15:04:15;4.33;;;2.03;;
4724;SDS011;2376;53.544;10.226;2022-09-09T15:06:43;4.43;;;2.20;;
4724;SDS011;2376;53.544;10.226;2022-09-09T15:09:13;3.63;;;3.03;;
4724;SDS011;2376;53.544;10.226;2022-09-09T15:11:40;2.73;;;2.53;;
4724;SDS011;2376;53.544;10.226;2022-09-09T15:14:07;2.57;;;2.37;;
4724;SDS011;2376;53.544;10.226;2022-09-09T15:16:35;3.73;;;2.33;;
4724;SDS011;2376;53.544;10.226;2022-09-09T15:19:02;3.70;;;2.43;;
4724;SDS011;2376;53.544;10.226;2022-09-09T15:21:31;4.50;;;2.40;;